茨城空港(百里飛行場)の過去48時間の天気

茨城空港(百里飛行場) (Hyakuri)

現在時刻: 10/20 03:41 JST (10/19 18:41 UTC) 以下の時間は現地時間です。

過去48時間のMETAR気象情報
時間 風向 風速(m/s) 視程 気温(℃) 湿度(%) 気圧(hPa) 天気現象
20 03:00 北北西 2 10km以上 13 94 1017
20 02:00 2 10km以上 12 100 1017
20 01:00 北北西 4 10km以上 13 94 1017
20 00:00 3 10km以上 13 94 1017
19 23:00 4 10km以上 14 94 1018
19 22:00 北北西 3 10km以上 14 94 1018
19 21:50 北北西 3 10km以上 14 100 1018
19 21:00 3 10km以上 15 100 1018 弱いしゅう雨
19 20:28 2 10km以上 15 94 1018 弱いしゅう雨
19 20:00 北北西 3 10km以上 15 100 1018
19 19:46 3 10km以上 15 100 1018
19 19:00 北北東 3 10km以上 15 100 1017 弱いしゅう雨
19 18:00 北北東 3 10km以上 16 88 1017 弱いしゅう雨
19 17:00 北東 3 10km以上 17 77 1017 弱いしゅう雨
19 16:17 北東 3 10km以上 17 72 1017 弱いしゅう雨
19 16:00 北東 6 10km以上 18 68 1017
19 15:00 北東 6 10km以上 19 60 1016
19 14:22 東北東 7 10km以上 19 60 1016
19 14:00 北東 6 10km以上 19 56 1016 弱いしゅう雨
19 13:46 北東 6 10km以上 19 56 1016 弱いしゅう雨
19 13:29 北東 7 10km以上 19 60 1016
19 13:00 北東 7 10km以上 19 60 1017
19 12:00 東北東 7 10km以上 19 60 1017
19 11:36 東北東 6 10km以上 19 60 1017 弱いしゅう雨
19 11:29 北東 6 10km以上 19 64 1017
19 11:00 北北東 5 10km以上 19 68 1018 弱いしゅう雨
19 10:39 北北東 5 10km以上 19 68 1018 弱いしゅう雨
19 10:00 北北東 5 10km以上 20 68 1018
19 09:40 北北東 5 10km以上 19 68 1018
19 09:00 4 10km以上 17 68 1018
19 08:30 北北東 4 10km以上 16 72 1018
19 08:16 北北東 4 10km以上 14 82 1018
19 08:00 北北東 4 10km以上 14 82 1018 弱いしゅう雨
19 07:00 3 10km以上 14 77 1018 弱いしゅう雨
19 06:46 3 10km以上 14 77 1018 弱いしゅう雨
19 06:00 北北西 4 10km以上 13 82 1018
19 05:17 3 10km以上 13 82 1017
19 05:00 北北東 3 10km以上 12 82 1017 弱いしゅう雨
19 04:35 北北東 2 10km以上 12 82 1017 弱いしゅう雨
19 04:00 北北東 4 10km以上 13 77 1015
19 03:00 2 10km以上 12 82 1017
19 02:18 3 10km以上 12 77 1017 弱いしゅう雨
19 02:00 4 10km以上 12 77 1016
19 01:00 北北東 3 10km以上 11 87 1017
19 00:48 北北東 3 10km以上 11 87 1017
19 00:00 4 10km以上 11 87 1017
18 23:00 3 10km以上 11 87 1017
18 22:00 4 10km以上 13 82 1018
18 21:00 北北東 3 10km以上 13 88 1017
18 20:00 北北東 3 10km以上 13 88 1017
18 19:00 北北東 2 10km以上 13 82 1017
18 18:00 北北東 3 10km以上 14 82 1017
18 17:00 東北東 5 10km以上 17 68 1016
18 16:00 東北東 6 10km以上 18 64 1016
18 15:00 東北東 6 10km以上 19 60 1016
18 14:32 東北東 6 10km以上 18 64 1016
18 14:00 東北東 7 10km以上 19 64 1015
18 13:00 北東 6 10km以上 19 60 1015
18 12:00 北東 6 10km以上 19 64 1016
18 11:00 東北東 6 10km以上 19 64 1016
18 10:28 東北東 5 10km以上 19 64 1016
18 10:00 北東 5 10km以上 19 60 1016
18 09:00 北北東 5 10km以上 18 64 1016
18 08:00 4 10km以上 15 77 1016
18 07:00 3 10km以上 12 88 1016
18 06:00 2 10km以上 10 94 1015
18 05:00 北北東 3 10km以上 11 87 1015
18 04:00 北北西 4 10km以上 11 94 1014
RJAH 191800Z 34004KT 9999 SCT050 BKN/// 13/12 Q1017
RJAH 191700Z 35004KT 9999 FEW015 BKN/// 12/12 Q1017
RJAH 191600Z 34007KT 9999 FEW015 BKN/// 13/12 Q1017
RJAH 191500Z 36005KT 9999 FEW015 BKN/// 13/12 Q1017
RJAH 191400Z 35007KT 9999 FEW015 SCT060 14/13 Q1018
RJAH 191300Z 33005KT 9999 FEW015 BKN100 14/13 Q1018
RJAH 191250Z 33005KT 9999 FEW015 BKN100 14/14 Q1018 RMK 1CU015 6AC100 A3009
RJAH 191200Z 35005KT 320V020 9999 -SHRA FEW015 BKN080 15/15 Q1018
RJAH 191128Z 01004KT 9999 -SHRA FEW015 SCT060 BKN080 15/14 Q1018 RMK 1CU015 3SC060 7AC080 A3006
RJAH 191100Z 34005KT 9999 FEW015 SCT080 BKN100 15/15 Q1018
RJAH 191046Z 35005KT 9999 FEW020 BKN080 BKN100 15/15 Q1018 RMK 1CU020 5AC080 7AC100 A3006
RJAH 191000Z 03005KT 9999 -SHRA FEW020 BKN080 BKN100 15/15 Q1017
RJAH 190900Z 02005KT 9999 -SHRA FEW020 BKN080 16/14 Q1017
RJAH 190800Z 05006KT 9999 -SHRA FEW020 BKN080 BKN100 17/13 Q1017
RJAH 190717Z 04005KT 9999 -SHRA FEW020 SCT080 BKN100 17/12 Q1017 RMK 1CU020 3AC080 7AC100 A3005
RJAH 190700Z 05011KT 9999 FEW020 BKN100 18/12 Q1017
RJAH 190600Z 05011KT 9999 FEW025 BKN100 19/11 Q1016
RJAH 190522Z 06013KT 9999 FEW020 SCT025 BKN100 19/11 Q1016 RMK 1CU020 3CU025 7AC100 A3002
RJAH 190500Z 05012KT 9999 -SHRA FEW020 SCT025 BKN100 19/10 Q1016
RJAH 190446Z 05011KT 9999 -SHRA FEW020 SCT025 BKN100 19/10 Q1016 RMK 1CU020 3CU025 7AC100 A3003
RJAH 190429Z 05013KT 9999 FEW020 SCT025 BKN100 19/11 Q1016 RMK 1CU020 3CU025 7AC100 A3003
RJAH 190400Z 05013KT 9999 FEW020 BKN025 BKN100 19/11 Q1017
RJAH 190300Z 06013KT 9999 FEW020 BKN025 BKN120 19/11 Q1017
RJAH 190236Z 07012KT 040V100 9999 -SHRA FEW020 BKN025 BKN040 19/11 Q1017 RMK 2CU020 6CU025 7SC040 A3006
RJAH 190229Z 05012KT 9999 FEW020 BKN025 BKN040 19/12 Q1017 RMK 2CU020 6CU025 7SC040 A3006
RJAH 190200Z 03010KT 9999 -SHRA FEW020 BKN025 BKN040 19/13 Q1018
RJAH 190139Z 03010KT 9999 -SHRA FEW020 BKN025 BKN040 19/13 Q1018 RMK 2CU020 6CU025 5SC040 A3006
RJAH 190100Z 02010KT 9999 FEW020 BKN025 20/14 Q1018
RJAH 190040Z 03010KT 350V050 9999 FEW020 BKN025 19/13 Q1018 RMK 2CU020 5CU025 A3006
RJAH 190000Z 01008KT 340V040 9999 FEW025 SCT140 17/11 Q1018
RJAH 182330Z 02008KT 9999 FEW025 BKN140 16/11 Q1018 RMK 1CU025 5AC140 A3007
RJAH 182316Z 03008KT 9999 FEW025 SCT120 14/11 Q1018 RMK 1CU025 3AC120 A3008
RJAH 182300Z 02007KT 9999 -SHRA FEW025 SCT030 BKN100 14/11 Q1018
RJAH 182200Z 36006KT 9999 -SHRA FEW025 SCT030 BKN100 14/10 Q1018
RJAH 182146Z 35006KT 9999 -SHRA FEW025 SCT030 BKN100 14/10 Q1018 RMK 1CU025 3CU030 7AC100 A3007
RJAH 182100Z 34007KT 9999 FEW012 SCT025 BKN100 13/10 Q1018
RJAH 182017Z 35006KT 310V030 9999 FEW025 BKN100 13/10 Q1017 RMK 2CU025 7AC100 A3005
RJAH 182000Z 02005KT 9999 -SHRA FEW030 BKN100 BKN160 12/09 Q1017
RJAH 181935Z 02003KT 9999 -SHRA FEW030 SCT100 BKN160 12/09 Q1017 RMK 1CU030 3AC100 7AC160 A3004
RJAH 181900Z 02008KT 9999 FEW030 BKN100 BKN160 13/09 Q1015
RJAH 181800Z 35004KT 9999 FEW030 BKN100 BKN160 12/09 Q1017
RJAH 181718Z 01005KT 9999 -SHRA FEW030 BKN100 BKN160 12/08 Q1017 RMK 1CU030 5AC100 7AC160 A3003
RJAH 181700Z 01007KT 9999 FEW050 BKN100 BKN160 12/08 Q1016
RJAH 181600Z 03006KT 9999 FEW050 SCT100 BKN180 11/09 Q1017
RJAH 181548Z 03006KT 9999 FEW050 SCT100 BKN180 11/09 Q1017 RMK 1SC050 3AC100 5AC180 A3004
RJAH 181500Z 36007KT 9999 FEW050 BKN/// 11/09 Q1017
RJAH 181400Z 01005KT 9999 FEW030 BKN/// 11/09 Q1017
RJAH 181300Z 01007KT 9999 FEW030 BKN/// 13/10 Q1018
RJAH 181200Z 03006KT 9999 FEW030 BKN/// 13/11 Q1017
RJAH 181100Z 02006KT 9999 FEW030 BKN/// 13/11 Q1017
RJAH 181000Z 03004KT 9999 FEW030 SCT/// 13/10 Q1017
RJAH 180900Z 03005KT 9999 FEW030 SCT/// 14/11 Q1017
RJAH 180800Z 06009KT 9999 FEW030 BKN250 17/11 Q1016
RJAH 180700Z 06012KT 9999 FEW025 SCT230 18/11 Q1016
RJAH 180600Z 06011KT 9999 FEW020 SCT025 19/11 Q1016
RJAH 180532Z 06011KT 9999 FEW020 SCT025 18/11 Q1016 RMK 1CU020 3CU025 A3001
RJAH 180500Z 07013KT 9999 FEW020 BKN025 19/12 Q1015
RJAH 180400Z 05012KT 9999 FEW020 BKN025 19/11 Q1015
RJAH 180300Z 05012KT 010V080 9999 FEW020 BKN025 19/12 Q1016
RJAH 180200Z 07012KT 9999 FEW020 BKN025 BKN200 19/12 Q1016
RJAH 180128Z 07010KT 9999 FEW020 BKN025 BKN210 19/12 Q1016 RMK 1CU020 5CU025 A3002 MAX WIND 18KT
RJAH 180100Z 04010KT 010V080 9999 FEW025 19/11 Q1016
RJAH 180000Z 03009KT 9999 FEW030 SCT180 18/11 Q1016
RJAH 172300Z 36007KT 9999 FEW025 15/11 Q1016
RJAH 172200Z 01005KT 9999 FEW025 12/10 Q1016
RJAH 172100Z 01004KT 9999 FEW025 10/09 Q1015
RJAH 172000Z 02005KT 9999 FEW030 SCT080 11/09 Q1015
RJAH 171900Z 34007KT 9999 FEW030 SCT080 11/10 Q1014